createdAt,value
2023-04-28T00:01:28.188Z,6
2023-04-28T00:16:38.403Z,4.8
2023-04-28T00:31:48.576Z,5.2
2023-04-28T00:46:58.252Z,4.2
2023-04-28T01:02:08.360Z,8.3
2023-04-28T01:17:18.283Z,5.4
2023-04-28T01:32:27.897Z,9.9
2023-04-28T01:47:38.228Z,4.1
2023-04-28T02:02:48.202Z,4.1
2023-04-28T02:17:58.263Z,6
2023-04-28T02:33:09.473Z,7.2
2023-04-28T02:48:19.742Z,8.5
2023-04-28T03:03:30.103Z,8.8
2023-04-28T03:18:39.754Z,7.3
2023-04-28T03:33:49.070Z,6
2023-04-28T03:48:58.716Z,9.7
2023-04-28T04:04:10.252Z,8.8
2023-04-28T04:19:20.072Z,6.8
2023-04-28T04:34:29.725Z,8.8
2023-04-28T04:49:39.844Z,8.6
2023-04-28T05:04:50.628Z,14.1
2023-04-28T05:20:01.174Z,8
2023-04-28T05:35:11.780Z,8.9
2023-04-28T05:50:21.759Z,7.2
2023-04-28T06:05:33.300Z,14.8
2023-04-28T06:20:43.732Z,10.6
2023-04-28T06:35:53.270Z,13.3
2023-04-28T06:51:03.501Z,10.5
2023-04-28T07:06:14.976Z,13.7
2023-04-28T07:21:25.577Z,8.9
2023-04-28T07:36:35.868Z,10.7
2023-04-28T07:51:45.807Z,14.2
2023-04-28T08:06:55.693Z,10.1
2023-04-28T08:22:06.776Z,12.1
2023-04-28T08:37:16.474Z,10.1
2023-04-28T08:52:26.845Z,10.4
2023-04-28T09:07:38.908Z,11.4
2023-04-28T09:22:49.501Z,13.5
2023-04-28T09:37:59.664Z,10.5
2023-04-28T09:53:09.365Z,15.9
2023-04-28T10:08:18.898Z,17.5
2023-04-28T10:23:28.839Z,16.5
2023-04-28T10:38:38.875Z,14
2023-04-28T10:53:49.193Z,16.3
2023-04-28T11:08:59.143Z,15
2023-04-28T11:24:09.684Z,15.7
2023-04-28T11:39:19.560Z,14.9
2023-04-28T11:54:29.547Z,12.7
2023-04-28T12:09:39.475Z,11
2023-04-28T12:24:49.653Z,14.4
2023-04-28T12:39:59.836Z,15.3
2023-04-28T12:55:10.086Z,17.4
2023-04-28T13:10:19.626Z,15
2023-04-28T13:25:28.681Z,13.8
2023-04-28T13:40:38.248Z,14.2
2023-04-28T13:55:50.431Z,19
2023-04-28T14:11:00.671Z,13.3
2023-04-28T14:26:10.233Z,13.9
2023-04-28T14:41:20.427Z,14.3
2023-04-28T14:56:34.177Z,12.9
2023-04-28T15:11:44.393Z,12.3
2023-04-28T15:26:54.746Z,14.2
2023-04-28T15:42:04.668Z,16.8
2023-04-28T15:57:15.839Z,16.3
2023-04-28T16:12:25.453Z,18.2
2023-04-28T16:27:34.597Z,21.1
2023-04-28T16:42:44.204Z,15.1
2023-04-28T16:57:53.929Z,27.5
2023-04-28T17:13:03.168Z,21.9
2023-04-28T17:28:15.623Z,17.6
2023-04-28T17:43:26.111Z,21.7
2023-04-28T17:58:35.762Z,20.1
2023-04-28T18:13:45.692Z,22.1
2023-04-28T18:28:57.788Z,23.3
2023-04-28T18:44:08.158Z,22.3
2023-04-28T18:59:18.552Z,21.9
2023-04-28T19:14:28.008Z,37.3
2023-04-28T19:29:37.558Z,25.6
2023-04-28T19:44:46.769Z,29.2
2023-04-28T19:59:56.296Z,37.8
2023-04-28T20:15:06.162Z,36.6
2023-04-28T20:30:15.595Z,32.9
2023-04-28T20:45:25.395Z,31.5
2023-04-28T21:00:35.767Z,29.8
2023-04-28T21:15:46.066Z,25.5
2023-04-28T21:30:55.361Z,16.6
2023-04-28T21:46:05.255Z,16.2
2023-04-28T22:01:15.912Z,15.8
2023-04-28T22:16:25.733Z,17.1
2023-04-28T22:31:35.651Z,13.4
2023-04-28T22:46:46.391Z,16.6
2023-04-28T23:01:55.664Z,20.3
2023-04-28T23:17:05.578Z,22.4
2023-04-28T23:32:15.426Z,29.5
2023-04-28T23:47:25.567Z,34.2
